Time;durP1;ratioP1;P1;durP2;ratioP2;P2;SDS_P1;SDS_P2;PMS_P1;PMS_P2;Temp;Humidity;BMP_temperature;BMP_pressure;BME280_temperature;BME280_humidity;BME280_pressure;Samples;Min_cycle;Max_cycle;Signal;HPM_P1;HPM_P2
2022/10/07 00:00:25;;;;;;;7.53;2.00;;;15.90;70.70;;;;;;5088951;28;20092;-60
2022/10/07 00:02:51;;;;;;;6.78;2.10;;;15.90;70.60;;;;;;5107619;28;20085;-60
2022/10/07 00:05:16;;;;;;;4.35;1.77;;;15.90;70.60;;;;;;5089228;28;20032;-60
2022/10/07 00:07:42;;;;;;;11.32;2.15;;;15.80;70.50;;;;;;5089723;28;20028;-61
2022/10/07 00:10:08;;;;;;;8.68;2.20;;;15.80;70.40;;;;;;5107189;28;20040;-60
2022/10/07 00:12:34;;;;;;;6.45;2.08;;;15.80;70.40;;;;;;5088421;28;20028;-60
2022/10/07 00:15:00;;;;;;;5.15;1.70;;;15.80;70.40;;;;;;5108421;28;20139;-60
2022/10/07 00:17:25;;;;;;;6.18;2.00;;;15.80;70.40;;;;;;5087930;28;20037;-61
2022/10/07 00:19:51;;;;;;;7.18;2.25;;;15.80;70.40;;;;;;5111700;28;20026;-60
2022/10/07 00:22:16;;;;;;;8.60;2.22;;;15.70;70.20;;;;;;5100353;28;20023;-60
2022/10/07 00:24:42;;;;;;;5.55;1.70;;;15.70;70.10;;;;;;5119883;28;20028;-60
2022/10/07 00:27:08;;;;;;;7.07;1.90;;;15.70;70.20;;;;;;5100366;28;20024;-60
2022/10/07 00:29:34;;;;;;;4.45;1.80;;;15.70;70.20;;;;;;5119656;28;20073;-60
2022/10/07 00:31:59;;;;;;;6.68;1.83;;;15.60;70.10;;;;;;5099471;28;20036;-61
2022/10/07 00:34:25;;;;;;;8.07;1.98;;;15.60;70.20;;;;;;5111531;28;20539;-59
2022/10/07 00:36:51;;;;;;;4.28;1.77;;;15.60;70.20;;;;;;5097834;28;20085;-59
2022/10/07 00:39:17;;;;;;;6.90;2.03;;;15.50;70.10;;;;;;5089257;28;20032;-60
2022/10/07 00:41:50;;;;;;;9.82;1.90;;;15.50;70.10;;;;;;5102208;28;20087;-60
2022/10/07 00:44:30;;;;;;;4.43;1.80;;;15.40;70.20;;;;;;5087842;28;20096;-60
2022/10/07 00:46:59;;;;;;;8.23;2.17;;;15.40;70.50;;;;;;5096774;28;20029;-61
2022/10/07 00:49:28;;;;;;;5.40;1.70;;;15.30;70.20;;;;;;5098771;28;20043;-60
2022/10/07 00:51:54;;;;;;;6.88;2.00;;;15.30;70.30;;;;;;5097171;28;20056;-59
2022/10/07 00:54:20;;;;;;;6.85;1.83;;;15.30;70.40;;;;;;5107504;28;20028;-59
2022/10/07 00:56:49;;;;;;;4.75;1.80;;;15.30;70.50;;;;;;5087611;28;20035;-61
2022/10/07 00:59:17;;;;;;;4.68;2.08;;;15.20;70.50;;;;;;5107675;28;20049;-62
2022/10/07 01:01:43;;;;;;;6.15;2.00;;;15.20;70.50;;;;;;5094581;28;20035;-61
2022/10/07 01:04:11;;;;;;;5.88;1.58;;;15.20;70.60;;;;;;5088013;28;20037;-61
2022/10/07 01:06:38;;;;;;;6.32;1.90;;;15.20;70.70;;;;;;5106295;28;20031;-61
2022/10/07 01:09:09;;;;;;;6.32;1.95;;;15.20;70.60;;;;;;5107680;28;20045;-60
2022/10/07 01:11:54;;;;;;;5.65;1.80;;;15.10;70.60;;;;;;5066894;28;20021;-59
2022/10/07 01:14:30;;;;;;;4.88;2.00;;;15.10;70.90;;;;;;5087607;28;20035;-60
2022/10/07 01:17:09;;;;;;;3.85;2.13;;;15.10;71.00;;;;;;5075348;28;20037;-60
2022/10/07 01:19:56;;;;;;;4.47;1.90;;;15.10;70.90;;;;;;5066832;28;20032;-61
2022/10/07 01:22:33;;;;;;;5.50;1.98;;;15.00;70.80;;;;;;5084455;28;20027;-60
2022/10/07 01:25:04;;;;;;;3.22;1.52;;;15.00;71.20;;;;;;5068149;28;20029;-60
2022/10/07 01:27:32;;;;;;;7.07;1.73;;;15.00;71.00;;;;;;5092261;28;20398;-61
2022/10/07 01:30:08;;;;;;;8.23;1.58;;;14.90;71.00;;;;;;5106829;28;20024;-59
2022/10/07 01:32:46;;;;;;;3.88;1.85;;;14.90;71.50;;;;;;5080364;28;20032;-61
2022/10/07 01:35:17;;;;;;;5.47;1.77;;;14.90;71.50;;;;;;5067136;28;20072;-59
2022/10/07 01:37:51;;;;;;;5.63;2.03;;;14.90;71.20;;;;;;5066307;28;20041;-59
2022/10/07 01:40:23;;;;;;;7.53;2.10;;;14.90;71.50;;;;;;5067237;28;20032;-60
2022/10/07 01:42:50;;;;;;;5.18;1.80;;;14.90;71.50;;;;;;5081645;28;20116;-60
2022/10/07 01:45:20;;;;;;;6.10;1.98;;;14.90;71.40;;;;;;5087069;28;20055;-60
2022/10/07 01:47:49;;;;;;;5.57;1.70;;;14.90;71.50;;;;;;5090824;28;20024;-60
2022/10/07 01:50:19;;;;;;;7.28;2.03;;;14.90;71.60;;;;;;5105527;28;20036;-60
2022/10/07 01:53:25;;;;;;;5.78;1.50;;;14.90;71.60;;;;;;5085879;28;20375;-60
2022/10/07 01:56:09;;;;;;;5.05;1.70;;;14.90;72.30;;;;;;5084833;28;20047;-59
2022/10/07 01:59:05;;;;;;;10.07;1.85;;;14.90;71.70;;;;;;5066586;28;20044;-59
2022/10/07 02:01:50;;;;;;;4.30;1.65;;;14.90;72.20;;;;;;5070377;28;20024;-59
2022/10/07 02:04:30;;;;;;;3.90;1.67;;;14.90;71.60;;;;;;5066540;28;20105;-60
2022/10/07 02:07:18;;;;;;;4.32;1.60;;;14.90;72.40;;;;;;5075456;28;20033;-60
2022/10/07 02:10:01;;;;;;;5.22;1.83;;;14.90;71.90;;;;;;5066569;28;20059;-60
2022/10/07 02:12:41;;;;;;;3.38;1.60;;;14.90;72.00;;;;;;5077685;28;20095;-60
2022/10/07 02:15:19;;;;;;;10.73;1.77;;;14.90;72.40;;;;;;5065216;28;20055;-61
2022/10/07 02:17:59;;;;;;;2.03;1.50;;;14.90;72.50;;;;;;5079896;28;20043;-61
2022/10/07 02:20:30;;;;;;;4.75;1.50;;;14.90;72.50;;;;;;5065224;28;20047;-60
2022/10/07 02:22:59;;;;;;;5.68;2.08;;;14.90;72.10;;;;;;5081188;28;20048;-60
2022/10/07 02:25:27;;;;;;;4.22;1.52;;;15.00;72.20;;;;;;5104508;28;20150;-61
2022/10/07 02:27:55;;;;;;;3.85;1.67;;;15.00;72.10;;;;;;5085672;28;20062;-61
2022/10/07 02:30:21;;;;;;;2.95;1.77;;;15.00;72.10;;;;;;5105867;28;20024;-61
2022/10/07 02:32:52;;;;;;;10.23;1.98;;;15.00;72.20;;;;;;5085548;28;20087;-59
2022/10/07 02:35:26;;;;;;;5.72;1.90;;;15.00;72.40;;;;;;5066267;28;20029;-58
2022/10/07 02:37:57;;;;;;;5.97;1.80;;;15.00;72.40;;;;;;5079965;28;20388;-61
2022/10/07 02:40:27;;;;;;;3.85;1.52;;;15.00;72.20;;;;;;5065679;28;20036;-62
2022/10/07 02:42:58;;;;;;;4.05;1.70;;;15.00;72.20;;;;;;5079612;28;20032;-62
2022/10/07 02:45:29;;;;;;;4.57;1.70;;;15.00;72.20;;;;;;5106248;28;20474;-61
2022/10/07 02:48:20;;;;;;;10.02;1.60;;;15.10;72.20;;;;;;5078426;28;20033;-59
2022/10/07 02:50:50;;;;;;;6.80;1.70;;;15.10;72.90;;;;;;4991646;28;20056;-59
2022/10/07 02:53:19;;;;;;;2.60;1.60;;;15.10;72.30;;;;;;5086177;28;20033;-60
2022/10/07 02:55:48;;;;;;;4.13;1.80;;;15.00;72.30;;;;;;5105915;28;20048;-61
2022/10/07 02:58:16;;;;;;;3.97;2.05;;;15.10;72.50;;;;;;5084931;28;20123;-61
2022/10/07 03:00:46;;;;;;;7.22;2.00;;;15.10;72.50;;;;;;5104515;28;20458;-59
2022/10/07 03:03:12;;;;;;;7.93;1.50;;;15.10;72.70;;;;;;5081737;28;20064;-60
2022/10/07 03:05:38;;;;;;;5.65;1.75;;;15.10;72.50;;;;;;5086361;28;20037;-61
2022/10/07 03:08:09;;;;;;;5.63;2.00;;;15.10;72.50;;;;;;5087218;28;20040;-60
2022/10/07 03:10:35;;;;;;;5.18;1.63;;;15.10;72.70;;;;;;5079392;28;20023;-61
2022/10/07 03:13:03;;;;;;;6.72;2.47;;;15.10;72.50;;;;;;5089520;28;20055;-61
2022/10/07 03:15:31;;;;;;;5.28;1.60;;;15.20;72.60;;;;;;5105410;28;20028;-59
2022/10/07 03:17:56;;;;;;;3.65;1.80;;;15.20;72.60;;;;;;5085160;28;20082;-61
2022/10/07 03:20:22;;;;;;;6.28;1.90;;;15.20;72.50;;;;;;5105080;28;20028;-59
2022/10/07 03:22:49;;;;;;;3.83;1.63;;;15.20;72.60;;;;;;5085228;28;20084;-61
2022/10/07 03:25:15;;;;;;;5.38;1.80;;;15.20;72.60;;;;;;5105286;28;20031;-61
2022/10/07 03:27:41;;;;;;;4.55;1.70;;;15.20;72.60;;;;;;5085018;28;20059;-60
2022/10/07 03:30:09;;;;;;;3.65;1.65;;;15.20;72.60;;;;;;5085563;28;20084;-61
2022/10/07 03:32:36;;;;;;;6.10;1.63;;;15.20;72.60;;;;;;5084144;28;20025;-60
2022/10/07 03:35:02;;;;;;;3.42;1.60;;;15.20;72.50;;;;;;5105135;28;20066;-61
2022/10/07 03:37:30;;;;;;;5.32;1.80;;;15.30;72.60;;;;;;5083920;28;20032;-61
2022/10/07 03:39:56;;;;;;;6.80;1.92;;;15.30;72.50;;;;;;5105267;28;20105;-61
2022/10/07 03:42:22;;;;;;;5.95;1.90;;;15.30;72.50;;;;;;5093888;28;20498;-60
2022/10/07 03:44:50;;;;;;;5.75;1.90;;;15.30;72.60;;;;;;5084237;28;20111;-59
2022/10/07 03:47:16;;;;;;;4.60;1.90;;;15.20;72.50;;;;;;5096460;28;20025;-60
2022/10/07 03:49:43;;;;;;;11.82;2.10;;;15.30;72.60;;;;;;5093485;28;20473;-61
2022/10/07 03:52:08;;;;;;;4.65;2.10;;;15.20;72.60;;;;;;5097945;28;20040;-60
2022/10/07 03:54:34;;;;;;;3.30;1.90;;;15.30;72.60;;;;;;5089142;28;20071;-61
2022/10/07 03:57:00;;;;;;;7.00;1.90;;;15.30;72.60;;;;;;5102453;28;20036;-60
2022/10/07 03:59:26;;;;;;;10.07;1.73;;;15.30;72.60;;;;;;5088992;28;20056;-60
2022/10/07 04:01:52;;;;;;;4.25;1.85;;;15.30;72.60;;;;;;5103707;28;20025;-60
2022/10/07 04:04:19;;;;;;;2.75;1.58;;;15.30;72.60;;;;;;5108657;28;20024;-61
2022/10/07 04:06:46;;;;;;;4.65;1.88;;;15.30;72.70;;;;;;5090900;28;20016;-61
2022/10/07 04:09:12;;;;;;;6.43;2.03;;;15.30;72.70;;;;;;5109285;28;20027;-59
2022/10/07 04:11:40;;;;;;;8.30;1.85;;;15.30;72.70;;;;;;5089861;28;20044;-59
2022/10/07 04:14:06;;;;;;;2.55;1.58;;;15.30;72.70;;;;;;5109172;28;20024;-60
2022/10/07 04:16:32;;;;;;;7.05;1.75;;;15.40;72.60;;;;;;5089193;28;20043;-60
2022/10/07 04:18:58;;;;;;;7.70;1.83;;;15.30;72.60;;;;;;5109050;28;20035;-61
2022/10/07 04:21:24;;;;;;;5.68;2.40;;;15.40;72.70;;;;;;5089088;28;20032;-60
2022/10/07 04:23:50;;;;;;;7.45;2.78;;;15.30;72.70;;;;;;5087739;28;20067;-61
2022/10/07 04:26:16;;;;;;;5.25;3.15;;;15.40;72.80;;;;;;5108258;28;20039;-60
2022/10/07 04:28:41;;;;;;;4.43;3.08;;;15.40;72.80;;;;;;5088138;28;20029;-59
2022/10/07 04:31:09;;;;;;;5.82;2.97;;;15.40;72.80;;;;;;5109806;28;20040;-60
2022/10/07 04:33:39;;;;;;;5.85;3.03;;;15.40;72.70;;;;;;5097994;28;20020;-61
2022/10/07 04:36:06;;;;;;;4.03;2.65;;;15.40;72.80;;;;;;5119425;28;20012;-59
2022/10/07 04:38:32;;;;;;;4.38;2.50;;;15.40;72.70;;;;;;5098940;28;20020;-60
2022/10/07 04:41:02;;;;;;;5.40;2.70;;;15.40;72.70;;;;;;5117855;28;20031;-60
2022/10/07 04:43:32;;;;;;;6.35;2.60;;;15.40;72.80;;;;;;5092360;28;20028;-60
2022/10/07 04:46:07;;;;;;;3.60;2.58;;;15.40;72.80;;;;;;5086464;28;20119;-59
2022/10/07 04:48:33;;;;;;;10.40;2.55;;;15.40;73.00;;;;;;5083706;28;20035;-61
2022/10/07 04:51:07;;;;;;;6.53;2.45;;;15.40;72.80;;;;;;5102245;28;20041;-61
2022/10/07 04:53:34;;;;;;;4.15;2.53;;;15.40;73.00;;;;;;5087019;28;20024;-60
2022/10/07 04:56:00;;;;;;;5.65;2.53;;;15.40;72.70;;;;;;5107601;28;20040;-60
2022/10/07 04:58:26;;;;;;;7.57;2.63;;;15.40;72.70;;;;;;5087549;28;20032;-61
2022/10/07 05:00:53;;;;;;;7.90;2.63;;;15.40;72.70;;;;;;5107551;28;20035;-61
2022/10/07 05:03:21;;;;;;;5.65;2.97;;;15.40;72.70;;;;;;5087220;28;20029;-59
2022/10/07 05:05:49;;;;;;;3.75;2.65;;;15.40;72.70;;;;;;5107041;28;20039;-60
2022/10/07 05:08:16;;;;;;;6.80;3.10;;;15.40;72.80;;;;;;5085727;28;20403;-61
2022/10/07 05:10:42;;;;;;;5.53;2.63;;;15.40;72.80;;;;;;5106163;28;20454;-59
2022/10/07 05:13:11;;;;;;;5.97;2.67;;;15.40;72.70;;;;;;5087358;28;20024;-61
2022/10/07 05:15:46;;;;;;;5.90;2.42;;;15.40;72.80;;;;;;5107588;28;20032;-60
2022/10/07 05:18:12;;;;;;;3.53;2.42;;;15.40;72.70;;;;;;5079433;28;20079;-60
2022/10/07 05:20:39;;;;;;;4.45;2.55;;;15.40;72.60;;;;;;5106860;28;20323;-58
2022/10/07 05:23:05;;;;;;;8.23;2.65;;;15.40;72.60;;;;;;5086807;28;20027;-61
2022/10/07 05:25:32;;;;;;;5.50;2.60;;;15.40;72.60;;;;;;5107073;28;20028;-61
2022/10/07 05:27:57;;;;;;;55.70;28.45;;;15.40;72.80;;;;;;5086850;28;20036;-61
2022/10/07 05:30:23;;;;;;;19.95;10.52;;;15.30;72.70;;;;;;5097526;28;20036;-60
2022/10/07 05:32:50;;;;;;;9.75;5.65;;;15.40;72.60;;;;;;5105811;28;20039;-60
2022/10/07 05:35:16;;;;;;;8.00;3.78;;;15.30;72.60;;;;;;5087491;28;20475;-61
2022/10/07 05:37:42;;;;;;;8.82;3.72;;;15.30;72.70;;;;;;5106009;28;20047;-59
2022/10/07 05:40:08;;;;;;;10.05;3.70;;;15.30;72.80;;;;;;5087775;28;20032;-60
2022/10/07 05:42:34;;;;;;;8.35;3.47;;;15.30;72.80;;;;;;5097038;28;20029;-60
2022/10/07 05:45:01;;;;;;;7.25;3.00;;;15.30;72.80;;;;;;5087255;28;20035;-59
2022/10/07 05:47:26;;;;;;;5.68;2.40;;;15.30;72.70;;;;;;5099598;28;20033;-61
2022/10/07 05:49:55;;;;;;;4.13;2.42;;;15.30;72.70;;;;;;5106008;28;20025;-62
2022/10/07 05:52:21;;;;;;;8.18;2.85;;;15.30;72.80;;;;;;5085948;28;20053;-59
2022/10/07 05:54:48;;;;;;;15.82;2.47;;;15.30;72.80;;;;;;5103148;28;20111;-62
2022/10/07 05:57:15;;;;;;;9.48;2.47;;;15.30;72.70;;;;;;5101260;28;20032;-61
2022/10/07 05:59:42;;;;;;;7.07;1.90;;;15.30;72.60;;;;;;5086927;28;20021;-60
2022/10/07 06:02:13;;;;;;;7.43;2.38;;;15.30;73.40;;;;;;5102329;28;20094;-59
2022/10/07 06:04:41;;;;;;;6.55;2.35;;;15.30;72.90;;;;;;5086797;28;20045;-60
2022/10/07 06:07:10;;;;;;;4.65;2.40;;;15.40;72.90;;;;;;5105883;28;20031;-60
2022/10/07 06:15:05;;;;;;;12.00;2.50;;;15.40;73.00;;;;;;5066369;28;20117;-61
2022/10/07 06:17:30;;;;;;;5.30;2.58;;;15.40;73.00;;;;;;5098169;28;20036;-61
2022/10/07 06:19:56;;;;;;;13.00;2.50;;;15.40;73.00;;;;;;5086556;28;20021;-61
2022/10/07 06:22:22;;;;;;;9.98;2.70;;;15.40;73.10;;;;;;5100538;28;20029;-62
2022/10/07 06:24:50;;;;;;;2.85;2.17;;;15.50;73.20;;;;;;5086507;28;20027;-61
2022/10/07 06:27:16;;;;;;;5.07;2.60;;;15.50;73.10;;;;;;5094570;28;20032;-60
2022/10/07 06:29:42;;;;;;;6.10;2.40;;;15.50;73.00;;;;;;5105742;28;20024;-60
2022/10/07 06:32:08;;;;;;;4.80;2.70;;;15.60;73.00;;;;;;5084315;28;20066;-61
2022/10/07 06:34:34;;;;;;;6.15;2.35;;;15.60;72.90;;;;;;5103983;28;20023;-61
2022/10/07 06:37:00;;;;;;;12.40;2.70;;;15.60;72.80;;;;;;5103840;28;20040;-61
2022/10/07 06:39:25;;;;;;;6.30;2.15;;;15.60;72.80;;;;;;5086073;28;20021;-62
2022/10/07 06:41:53;;;;;;;3.38;2.20;;;15.60;72.80;;;;;;5104186;28;20024;-60
2022/10/07 06:44:21;;;;;;;9.25;2.33;;;15.60;72.70;;;;;;5105344;28;20034;-61
2022/10/07 06:46:47;;;;;;;7.00;2.20;;;15.60;72.60;;;;;;5086049;28;20055;-60
2022/10/07 06:49:13;;;;;;;3.00;1.60;;;15.70;72.60;;;;;;5085411;28;20471;-60
2022/10/07 06:51:38;;;;;;;7.25;2.00;;;15.70;72.60;;;;;;5097570;28;20040;-60
2022/10/07 06:54:04;;;;;;;5.97;2.22;;;15.70;72.70;;;;;;5095065;28;20035;-60
2022/10/07 06:56:30;;;;;;;8.40;2.13;;;15.80;73.50;;;;;;5114276;28;20047;-60
2022/10/07 06:58:55;;;;;;;10.32;1.90;;;15.70;72.70;;;;;;5092886;28;20012;-61
2022/10/07 07:01:21;;;;;;;6.40;1.98;;;15.80;72.80;;;;;;5105463;28;20032;-60
2022/10/07 07:03:47;;;;;;;6.82;2.03;;;15.80;72.80;;;;;;5086184;28;20080;-60
2022/10/07 07:06:13;;;;;;;4.00;2.05;;;15.90;72.90;;;;;;5105462;28;20062;-61
2022/10/07 07:08:40;;;;;;;8.80;2.47;;;16.00;73.00;;;;;;5085742;28;20029;-61
2022/10/07 07:13:56;;;;;;;9.45;2.45;;;16.20;72.60;;;;;;5080980;28;20036;-61
2022/10/07 07:16:25;;;;;;;5.13;2.40;;;16.30;72.30;;;;;;5085465;28;20443;-60
2022/10/07 07:18:52;;;;;;;6.68;2.33;;;16.40;72.00;;;;;;5105104;28;20083;-61
2022/10/07 07:21:18;;;;;;;4.63;2.33;;;16.50;71.70;;;;;;5085824;28;20199;-61
2022/10/07 07:23:44;;;;;;;6.85;2.33;;;16.60;71.30;;;;;;5086667;28;20028;-60
2022/10/07 07:26:10;;;;;;;5.60;2.15;;;16.70;70.90;;;;;;5091888;28;20044;-60
2022/10/07 07:28:36;;;;;;;11.35;2.08;;;16.80;70.70;;;;;;5087777;28;20068;-60
2022/10/07 07:31:11;;;;;;;11.80;1.95;;;16.90;70.30;;;;;;5093711;28;20024;-60
2022/10/07 07:33:38;;;;;;;4.32;1.80;;;17.00;69.70;;;;;;5096222;28;20035;-59
2022/10/07 07:36:17;;;;;;;4.93;2.20;;;17.20;69.80;;;;;;5107925;28;20032;-61
2022/10/07 07:38:50;;;;;;;3.90;2.40;;;17.20;69.00;;;;;;5082032;28;20035;-60
2022/10/07 07:41:17;;;;;;;10.95;2.53;;;17.30;68.70;;;;;;5109915;28;20032;-60
2022/10/07 07:43:46;;;;;;;9.30;2.45;;;17.40;68.60;;;;;;5087487;28;20031;-60
2022/10/07 07:46:12;;;;;;;8.00;2.03;;;17.50;68.40;;;;;;5109301;28;20039;-60
2022/10/07 07:48:38;;;;;;;6.15;2.45;;;17.60;68.50;;;;;;5037066;28;20025;-59
2022/10/07 07:51:06;;;;;;;10.20;2.42;;;17.70;68.20;;;;;;5102626;28;20479;-60
2022/10/07 07:53:33;;;;;;;7.85;2.30;;;17.80;68.10;;;;;;5103130;28;20028;-60
2022/10/07 07:56:01;;;;;;;4.72;2.35;;;17.90;68.10;;;;;;5089591;28;20050;-61
2022/10/07 07:58:27;;;;;;;5.85;2.08;;;18.00;67.70;;;;;;5107871;28;20036;-61
2022/10/07 08:01:00;;;;;;;7.82;2.55;;;18.10;67.30;;;;;;5089315;28;20016;-61
2022/10/07 08:03:27;;;;;;;4.18;2.17;;;18.10;66.70;;;;;;5097701;28;20024;-61
2022/10/07 08:05:53;;;;;;;4.55;1.88;;;18.20;67.00;;;;;;5108817;28;20069;-60
2022/10/07 08:08:20;;;;;;;7.88;3.40;;;18.20;66.70;;;;;;5088330;28;20111;-62
2022/10/07 08:10:45;;;;;;;6.43;3.08;;;18.30;67.10;;;;;;5108663;28;20031;-61
2022/10/07 08:13:11;;;;;;;5.50;2.40;;;18.40;66.30;;;;;;5088723;28;20032;-59
2022/10/07 08:15:36;;;;;;;6.85;2.45;;;18.40;66.00;;;;;;5109423;28;20056;-60
2022/10/07 08:18:05;;;;;;;8.77;2.38;;;18.40;66.00;;;;;;5089397;28;20052;-61
2022/10/07 08:20:31;;;;;;;6.88;3.20;;;18.50;66.20;;;;;;5109510;28;20043;-61
2022/10/07 08:22:58;;;;;;;4.50;2.50;;;18.50;66.10;;;;;;5095087;28;20020;-60
2022/10/07 08:25:24;;;;;;;5.78;2.80;;;18.60;66.00;;;;;;5110000;28;20047;-60
2022/10/07 08:27:50;;;;;;;8.43;2.95;;;18.70;65.90;;;;;;5108674;28;20021;-60
2022/10/07 08:30:17;;;;;;;4.57;2.67;;;18.80;65.60;;;;;;5105076;28;20046;-61
2022/10/07 08:32:44;;;;;;;5.45;2.80;;;18.90;65.40;;;;;;5098232;28;20028;-60
2022/10/07 08:35:09;;;;;;;6.32;2.88;;;19.00;65.30;;;;;;5094095;28;20028;-61
2022/10/07 08:37:35;;;;;;;6.25;2.63;;;19.00;65.20;;;;;;5105741;28;20038;-62
2022/10/07 08:40:01;;;;;;;7.50;2.72;;;19.10;65.10;;;;;;5088654;28;20044;-60
2022/10/07 08:42:34;;;;;;;7.30;2.35;;;19.20;64.90;;;;;;5101439;28;20028;-61
2022/10/07 08:45:00;;;;;;;6.37;2.60;;;19.30;64.30;;;;;;5069173;28;20476;-60
2022/10/07 08:47:26;;;;;;;7.65;3.10;;;19.40;64.70;;;;;;5106668;28;20046;-61
2022/10/07 08:50:11;;;;;;;5.20;2.40;;;19.50;64.40;;;;;;5096451;28;20024;-61
2022/10/07 08:52:36;;;;;;;4.28;2.08;;;19.60;63.30;;;;;;5069923;28;20049;-60
2022/10/07 08:55:08;;;;;;;7.72;2.35;;;19.70;63.90;;;;;;5088895;28;20036;-60
2022/10/07 08:57:54;;;;;;;9.10;2.40;;;19.70;63.90;;;;;;5087835;28;20083;-60
2022/10/07 09:00:33;;;;;;;9.38;2.65;;;19.80;63.90;;;;;;5061303;28;20058;-59
2022/10/07 09:02:59;;;;;;;10.00;2.30;;;19.90;63.90;;;;;;5073226;28;20388;-61
2022/10/07 09:05:28;;;;;;;7.53;2.55;;;20.00;63.70;;;;;;5104370;28;20055;-60
2022/10/07 09:08:01;;;;;;;6.15;2.28;;;20.10;63.40;;;;;;5087789;28;20032;-60
2022/10/07 09:10:43;;;;;;;4.60;2.13;;;20.20;62.90;;;;;;5069075;28;20033;-61
2022/10/07 09:13:29;;;;;;;7.50;2.50;;;20.20;62.30;;;;;;5078505;28;20039;-61
2022/10/07 09:16:10;;;;;;;18.85;2.60;;;20.20;61.70;;;;;;5089281;28;20029;-61
2022/10/07 09:18:44;;;;;;;8.38;2.53;;;20.30;62.20;;;;;;5081323;28;20068;-60
2022/10/07 09:21:18;;;;;;;21.45;2.40;;;20.30;61.90;;;;;;5068195;28;20036;-60
2022/10/07 09:23:46;;;;;;;5.32;2.20;;;20.40;62.10;;;;;;5067301;28;20059;-61
2022/10/07 09:26:14;;;;;;;11.00;2.42;;;20.40;62.10;;;;;;5107718;28;20032;-60
2022/10/07 09:28:39;;;;;;;6.03;2.60;;;20.50;61.80;;;;;;5087634;28;20047;-61
2022/10/07 09:31:06;;;;;;;3.85;2.28;;;20.60;61.80;;;;;;5106912;28;20036;-61
2022/10/07 09:33:39;;;;;;;7.72;2.55;;;20.60;61.50;;;;;;5086799;28;20032;-61
2022/10/07 09:36:07;;;;;;;4.47;2.60;;;20.60;61.20;;;;;;5067080;28;20029;-60
2022/10/07 09:38:42;;;;;;;4.60;2.10;;;20.70;61.40;;;;;;5096902;28;20115;-61
2022/10/07 09:41:18;;;;;;;5.13;2.30;;;20.70;61.30;;;;;;5071243;28;20036;-62
2022/10/07 09:44:15;;;;;;;8.05;2.97;;;20.80;60.90;;;;;;5076639;28;20021;-61
2022/10/07 09:46:47;;;;;;;6.63;2.20;;;20.90;60.30;;;;;;5087189;28;20051;-61
2022/10/07 09:49:27;;;;;;;7.55;2.53;;;20.90;60.60;;;;;;5098950;28;20061;-60
2022/10/07 09:52:13;;;;;;;5.05;2.53;;;21.00;60.20;;;;;;5087118;28;20109;-59
2022/10/07 09:54:40;;;;;;;8.13;2.95;;;21.00;60.50;;;;;;5083174;28;20150;-62
2022/10/07 09:57:21;;;;;;;4.50;2.97;;;21.10;60.90;;;;;;5106331;28;20043;-60
2022/10/07 09:59:47;;;;;;;5.53;2.72;;;21.20;60.30;;;;;;5084024;28;20051;-60
2022/10/07 10:02:13;;;;;;;5.50;2.78;;;21.30;60.20;;;;;;5106446;28;20103;-60
2022/10/07 10:04:53;;;;;;;6.32;3.42;;;21.30;59.90;;;;;;5086269;28;20021;-60
2022/10/07 10:07:39;;;;;;;4.88;3.13;;;21.30;59.40;;;;;;5066666;28;20037;-61
2022/10/07 10:10:20;;;;;;;13.23;3.03;;;21.40;59.90;;;;;;5084525;28;20037;-61
2022/10/07 10:12:50;;;;;;;6.28;2.72;;;21.50;59.70;;;;;;5073213;28;20474;-61
2022/10/07 10:15:34;;;;;;;6.47;3.05;;;21.60;59.90;;;;;;5106860;28;20103;-60
2022/10/07 10:18:01;;;;;;;5.18;3.03;;;21.60;59.40;;;;;;5086170;28;20040;-60
2022/10/07 10:20:42;;;;;;;7.28;3.63;;;21.70;59.70;;;;;;5086430;28;20487;-60
2022/10/07 10:23:32;;;;;;;7.65;3.38;;;21.70;58.70;;;;;;5070336;28;20178;-60
2022/10/07 10:26:26;;;;;;;6.97;3.25;;;21.70;58.00;;;;;;5066370;28;20021;-61
2022/10/07 10:29:18;;;;;;;5.90;3.35;;;21.80;58.70;;;;;;5075083;28;20024;-61
2022/10/07 10:31:55;;;;;;;9.05;4.35;;;21.80;58.80;;;;;;5066248;28;20029;-61
2022/10/07 10:34:37;;;;;;;10.88;3.78;;;21.80;58.10;;;;;;5087039;28;20128;-60
2022/10/07 10:37:22;;;;;;;9.20;3.70;;;21.80;58.40;;;;;;5106066;28;20032;-60
2022/10/07 10:40:15;;;;;;;5.05;3.47;;;21.80;58.80;;;;;;5082155;28;20031;-59
2022/10/07 10:42:55;;;;;;;7.32;3.33;;;21.80;58.70;;;;;;5066081;28;20108;-60
2022/10/07 10:45:42;;;;;;;7.25;3.20;;;21.90;58.70;;;;;;5065958;28;20029;-61
2022/10/07 10:48:40;;;;;;;7.43;3.40;;;22.00;58.10;;;;;;5100672;28;20031;-60
2022/10/07 10:51:24;;;;;;;7.93;3.70;;;22.00;58.90;;;;;;5070360;28;20048;-60
2022/10/07 10:54:23;;;;;;;6.68;3.08;;;22.20;59.10;;;;;;5082571;28;20032;-61
2022/10/07 10:57:13;;;;;;;5.88;3.08;;;22.30;58.60;;;;;;5065769;28;20040;-61
2022/10/07 11:00:00;;;;;;;6.55;3.17;;;22.40;58.60;;;;;;5079297;28;20032;-60
2022/10/07 11:02:46;;;;;;;6.50;4.13;;;22.50;57.90;;;;;;5065503;28;20033;-62
2022/10/07 11:05:20;;;;;;;11.38;3.13;;;22.60;57.40;;;;;;5072247;28;20041;-61
2022/10/07 11:07:58;;;;;;;5.38;3.33;;;22.70;57.70;;;;;;5065631;28;20039;-60
2022/10/07 11:10:32;;;;;;;7.68;3.88;;;22.70;57.00;;;;;;5085863;28;20028;-59
2022/10/07 11:13:12;;;;;;;12.30;3.65;;;22.70;56.80;;;;;;5067146;28;20039;-60
2022/10/07 11:15:46;;;;;;;8.68;3.92;;;22.70;56.40;;;;;;5106406;28;20088;-61
2022/10/07 11:18:27;;;;;;;10.98;4.25;;;22.70;56.40;;;;;;5072889;28;20025;-60
2022/10/07 11:20:55;;;;;;;8.68;3.45;;;22.60;56.30;;;;;;5092619;28;20043;-61
2022/10/07 11:23:22;;;;;;;8.85;3.65;;;22.60;57.30;;;;;;5093878;28;20028;-60
2022/10/07 11:26:23;;;;;;;5.65;3.35;;;22.60;57.40;;;;;;5106397;28;20096;-61
2022/10/07 11:28:50;;;;;;;6.65;3.78;;;22.60;57.10;;;;;;5064205;28;20039;-61
2022/10/07 11:31:32;;;;;;;8.18;4.25;;;22.60;57.10;;;;;;5104658;28;20020;-61
2022/10/07 11:34:21;;;;;;;5.88;3.60;;;22.70;56.30;;;;;;5082444;28;20042;-61
2022/10/07 11:37:01;;;;;;;8.70;4.10;;;22.70;56.50;;;;;;5065282;28;20029;-60
2022/10/07 11:39:28;;;;;;;11.85;4.28;;;22.70;56.30;;;;;;5077380;28;20078;-61
2022/10/07 11:42:03;;;;;;;5.90;3.75;;;22.70;56.70;;;;;;5090524;28;20040;-60
2022/10/07 11:44:39;;;;;;;9.85;4.05;;;22.70;57.10;;;;;;5077397;28;20037;-61
2022/10/07 11:47:12;;;;;;;7.57;4.10;;;22.80;57.20;;;;;;5064141;28;20475;-60
2022/10/07 11:49:56;;;;;;;7.75;4.45;;;22.80;57.00;;;;;;5034804;28;20374;-60
2022/10/07 11:52:29;;;;;;;9.82;4.25;;;22.80;56.00;;;;;;5081570;28;20060;-61
2022/10/07 11:55:05;;;;;;;5.32;3.80;;;22.80;56.00;;;;;;5080857;28;20040;-60
2022/10/07 11:57:34;;;;;;;8.77;4.68;;;22.80;56.20;;;;;;5065356;28;20092;-60
2022/10/07 12:00:07;;;;;;;5.90;4.20;;;22.70;56.70;;;;;;5087427;28;20028;-61
2022/10/07 12:02:45;;;;;;;7.15;4.00;;;22.70;56.20;;;;;;5103830;28;20031;-60
2022/10/07 12:05:33;;;;;;;6.80;4.28;;;22.70;56.20;;;;;;5084636;28;20035;-61
2022/10/07 12:08:00;;;;;;;13.38;4.43;;;22.70;55.70;;;;;;5104792;28;20099;-61
2022/10/07 12:10:28;;;;;;;12.23;4.40;;;22.70;56.00;;;;;;5104235;28;20028;-60
2022/10/07 12:12:56;;;;;;;12.05;3.92;;;22.60;55.70;;;;;;5085218;28;20028;-59
2022/10/07 12:15:27;;;;;;;6.65;4.38;;;22.50;56.00;;;;;;5087043;28;20032;-61
2022/10/07 12:18:22;;;;;;;7.40;4.63;;;22.50;56.50;;;;;;5068662;28;20088;-61
2022/10/07 12:20:51;;;;;;;;;;;22.40;56.40;;;;;;5075936;28;20033;-61
2022/10/07 12:23:17;;;;;;;5.63;3.70;;;22.40;57.10;;;;;;5094572;28;19914;-62
2022/10/07 12:25:48;;;;;;;8.45;4.20;;;22.50;57.50;;;;;;5107399;28;20428;-60
2022/10/07 12:28:25;;;;;;;5.80;4.32;;;22.50;57.00;;;;;;5068882;28;20037;-61
2022/10/07 12:31:12;;;;;;;7.13;4.20;;;22.50;56.30;;;;;;5068520;28;20029;-60
2022/10/07 12:33:43;;;;;;;6.68;4.18;;;22.50;57.00;;;;;;5056093;28;20098;-61
2022/10/07 12:36:17;;;;;;;6.72;3.80;;;22.60;57.30;;;;;;5068262;28;20027;-60
2022/10/07 12:38:58;;;;;;;6.38;3.95;;;22.70;56.80;;;;;;5105087;28;20114;-61
2022/10/07 12:41:29;;;;;;;5.97;4.28;;;22.80;56.20;;;;;;5088485;28;20115;-59
2022/10/07 12:44:22;;;;;;;7.43;3.88;;;22.90;56.00;;;;;;5100945;28;20028;-59
2022/10/07 12:46:49;;;;;;;6.70;3.95;;;22.90;55.60;;;;;;5068456;28;20036;-61
2022/10/07 12:49:39;;;;;;;11.07;3.92;;;22.90;56.40;;;;;;5105710;28;20043;-60
2022/10/07 12:52:14;;;;;;;8.30;4.60;;;23.10;56.40;;;;;;5068077;28;20068;-62
2022/10/07 12:55:01;;;;;;;10.93;4.30;;;23.20;56.00;;;;;;5087177;28;20135;-61
2022/10/07 12:57:33;;;;;;;7.22;4.35;;;23.30;55.50;;;;;;5067837;28;20029;-63
2022/10/07 13:00:10;;;;;;;9.93;4.72;;;23.40;55.50;;;;;;5082158;28;20066;-60
2022/10/07 13:03:07;;;;;;;10.80;4.57;;;23.40;54.90;;;;;;5080900;28;20032;-60
2022/10/07 13:05:51;;;;;;;7.03;4.40;;;23.50;54.80;;;;;;5086623;28;20028;-60
2022/10/07 13:08:17;;;;;;;;;;;23.60;54.70;;;;;;5104886;28;20406;-62
2022/10/07 13:11:05;;;;;;;7.65;5.30;;;23.60;55.40;;;;;;5087804;28;19934;-61
2022/10/07 13:13:54;;;;;;;6.93;4.95;;;23.50;53.90;;;;;;5069202;28;20036;-61
2022/10/07 13:16:30;;;;;;;10.95;5.20;;;23.30;53.60;;;;;;5071148;28;20033;-61